createdAt,value
2022-11-21T00:00:54.343Z,4.97
2022-11-21T00:03:56.580Z,5.00
2022-11-21T00:06:58.893Z,4.97
2022-11-21T00:10:01.199Z,4.96
2022-11-21T00:13:03.996Z,4.99
2022-11-21T00:16:08.168Z,4.91
2022-11-21T00:19:10.392Z,5.04
2022-11-21T00:22:12.632Z,4.99
2022-11-21T00:25:15.211Z,5.00
2022-11-21T00:28:17.443Z,5.08
2022-11-21T00:31:24.206Z,5.13
2022-11-21T00:34:26.596Z,5.32
2022-11-21T00:37:29.168Z,5.11
2022-11-21T00:40:31.380Z,5.07
2022-11-21T00:43:34.200Z,5.08
2022-11-21T00:46:36.447Z,5.06
2022-11-21T00:49:38.688Z,5.13
2022-11-21T00:52:40.899Z,5.23
2022-11-21T00:55:43.091Z,5.20
2022-11-21T00:58:45.392Z,5.14
2022-11-21T01:01:47.688Z,5.18
2022-11-21T01:04:49.887Z,5.13
2022-11-21T01:07:52.096Z,5.18
2022-11-21T01:10:54.290Z,5.20
2022-11-21T01:13:56.484Z,5.20
2022-11-21T01:16:58.720Z,5.24
2022-11-21T01:20:01.037Z,5.32
2022-11-21T01:23:03.277Z,5.32
2022-11-21T01:26:07.311Z,5.32
2022-11-21T01:29:09.561Z,5.26
2022-11-21T01:32:11.791Z,5.27
2022-11-21T01:35:14.137Z,5.37
2022-11-21T01:38:16.388Z,5.21
2022-11-21T01:41:42.594Z,5.28
2022-11-21T01:44:51.489Z,5.30
2022-11-21T01:47:53.735Z,5.30
2022-11-21T01:51:00.800Z,5.34
2022-11-21T01:54:08.674Z,5.27
2022-11-21T01:57:10.902Z,5.28
2022-11-21T02:00:18.320Z,5.26
2022-11-21T02:03:25.560Z,5.17
2022-11-21T02:06:28.933Z,5.20
2022-11-21T02:09:33.480Z,5.21
2022-11-21T02:12:39.743Z,5.16
2022-11-21T02:15:41.995Z,5.24
2022-11-21T02:18:44.610Z,5.24
2022-11-21T02:21:59.349Z,5.27
2022-11-21T02:25:04.194Z,5.26
2022-11-21T02:28:18.386Z,5.30
2022-11-21T02:31:20.583Z,5.26
2022-11-21T02:34:22.768Z,5.27
2022-11-21T02:37:25.058Z,5.32
2022-11-21T02:40:32.654Z,5.38
2022-11-21T02:43:52.722Z,5.40
2022-11-21T02:46:54.903Z,5.44
2022-11-21T02:50:07.483Z,5.45
2022-11-21T02:53:12.706Z,5.47
2022-11-21T02:56:14.927Z,5.35
2022-11-21T02:59:17.685Z,5.37
2022-11-21T03:02:19.979Z,5.28
2022-11-21T03:05:22.821Z,5.27
2022-11-21T03:08:25.103Z,5.30
2022-11-21T03:11:27.356Z,5.24
2022-11-21T03:14:29.903Z,5.27
2022-11-21T03:17:32.280Z,5.14
2022-11-21T03:20:35.036Z,5.14
2022-11-21T03:23:37.239Z,5.11
2022-11-21T03:26:39.448Z,5.07
2022-11-21T03:29:41.671Z,5.14
2022-11-21T03:32:43.991Z,5.08
2022-11-21T03:35:47.963Z,5.00
2022-11-21T03:38:50.218Z,5.03
2022-11-21T03:41:52.438Z,4.99
2022-11-21T03:44:54.677Z,4.97
2022-11-21T03:47:56.943Z,4.97
2022-11-21T03:50:59.154Z,4.91
2022-11-21T03:54:02.116Z,4.96
2022-11-21T03:57:04.308Z,4.91
2022-11-21T04:00:07.112Z,4.86
2022-11-21T04:03:09.412Z,4.93
2022-11-21T04:06:13.239Z,4.86
2022-11-21T04:09:15.451Z,4.86
2022-11-21T04:12:17.623Z,4.81
2022-11-21T04:15:19.859Z,4.79
2022-11-21T04:18:22.329Z,4.83
2022-11-21T04:21:24.519Z,4.86
2022-11-21T04:24:27.060Z,4.79
2022-11-21T04:27:29.495Z,4.73
2022-11-21T04:30:33.946Z,4.72
2022-11-21T04:33:36.146Z,4.77
2022-11-21T04:36:38.439Z,4.66
2022-11-21T04:39:40.688Z,4.70
2022-11-21T04:42:47.771Z,4.75
2022-11-21T04:45:50.017Z,4.70
2022-11-21T04:48:52.278Z,4.67
2022-11-21T04:51:54.468Z,4.67
2022-11-21T04:54:56.977Z,4.59
2022-11-21T04:57:59.610Z,4.60
2022-11-21T05:01:09.371Z,4.63
2022-11-21T05:04:11.809Z,4.52
2022-11-21T05:07:14.915Z,4.56
2022-11-21T05:10:17.184Z,4.49
2022-11-21T05:13:22.033Z,4.42
2022-11-21T05:16:24.306Z,4.56
2022-11-21T05:19:26.492Z,4.59
2022-11-21T05:22:28.716Z,4.62
2022-11-21T05:25:30.923Z,4.65
2022-11-21T05:28:33.150Z,4.62
2022-11-21T05:31:35.413Z,4.65
2022-11-21T05:34:37.637Z,4.65
2022-11-21T05:37:39.867Z,4.62
2022-11-21T05:40:42.136Z,4.76
2022-11-21T05:43:47.540Z,4.60
2022-11-21T05:46:49.760Z,4.58
2022-11-21T05:49:51.992Z,4.60
2022-11-21T05:52:54.181Z,4.59
2022-11-21T05:55:58.844Z,4.58
2022-11-21T05:59:01.087Z,4.59
2022-11-21T06:02:22.184Z,4.52
2022-11-21T06:05:24.516Z,4.42
2022-11-21T06:08:29.415Z,4.48
2022-11-21T06:11:31.618Z,4.48
2022-11-21T06:14:33.792Z,4.46
2022-11-21T06:17:36.015Z,4.46
2022-11-21T06:20:38.236Z,4.53
2022-11-21T06:23:41.167Z,4.44
2022-11-21T06:26:43.378Z,4.45
2022-11-21T06:29:48.396Z,4.35
2022-11-21T06:32:50.759Z,4.38
2022-11-21T06:35:53.088Z,4.46
2022-11-21T06:38:56.379Z,4.58
2022-11-21T06:41:59.082Z,4.77
2022-11-21T06:45:01.297Z,4.87
2022-11-21T06:48:03.608Z,4.97
2022-11-21T06:51:13.423Z,5.04
2022-11-21T06:54:17.117Z,5.11
2022-11-21T06:57:37.497Z,5.18
2022-11-21T07:00:39.775Z,5.31
2022-11-21T07:03:46.114Z,5.20
2022-11-21T07:06:49.060Z,5.23
2022-11-21T07:09:51.819Z,5.24
2022-11-21T07:13:19.421Z,5.31
2022-11-21T07:16:22.154Z,5.30
2022-11-21T07:19:27.049Z,5.35
2022-11-21T07:22:29.665Z,5.41
2022-11-21T07:25:36.415Z,5.48
2022-11-21T07:28:42.039Z,5.48
2022-11-21T07:31:46.944Z,5.51
2022-11-21T07:34:49.197Z,5.52
2022-11-21T07:37:51.748Z,5.61
2022-11-21T07:40:56.840Z,5.58
2022-11-21T07:43:59.070Z,5.47
2022-11-21T07:47:01.360Z,5.49
2022-11-21T07:50:07.378Z,5.54
2022-11-21T07:53:11.561Z,5.58
2022-11-21T07:56:13.816Z,5.71
2022-11-21T07:59:16.046Z,5.89
2022-11-21T08:02:23.166Z,6.07
2022-11-21T08:05:29.082Z,6.12
2022-11-21T08:08:31.571Z,6.05
2022-11-21T08:11:36.732Z,6.14
2022-11-21T08:14:39.243Z,6.13
2022-11-21T08:17:41.541Z,6.16
2022-11-21T08:20:43.848Z,6.19
2022-11-21T08:23:49.344Z,6.14
2022-11-21T08:26:52.224Z,6.17
2022-11-21T08:29:54.416Z,6.31
2022-11-21T08:33:01.079Z,6.41
2022-11-21T08:36:09.725Z,6.41
2022-11-21T08:39:11.936Z,6.36
2022-11-21T08:42:14.501Z,6.37
2022-11-21T08:45:16.850Z,6.43
2022-11-21T08:48:22.015Z,6.48
2022-11-21T08:51:24.275Z,6.65
2022-11-21T08:54:26.618Z,6.70
2022-11-21T08:57:29.166Z,6.61
2022-11-21T09:00:31.485Z,6.75
2022-11-21T09:03:33.756Z,6.87
2022-11-21T09:06:36.658Z,6.95
2022-11-21T09:09:41.872Z,7.08
2022-11-21T09:12:44.083Z,7.20
2022-11-21T09:16:05.126Z,7.29
2022-11-21T09:19:07.367Z,7.37
2022-11-21T09:22:09.592Z,7.57
2022-11-21T09:25:11.780Z,7.78
2022-11-21T09:28:14.481Z,8.04
2022-11-21T09:31:16.760Z,8.24
2022-11-21T09:34:20.067Z,8.36
2022-11-21T09:37:22.444Z,8.63
2022-11-21T09:40:27.650Z,9.11
2022-11-21T09:43:55.941Z,9.37
2022-11-21T09:47:11.138Z,9.47
2022-11-21T09:50:13.296Z,9.35
2022-11-21T09:53:28.380Z,9.74
2022-11-21T09:56:34.153Z,9.45
2022-11-21T09:59:40.077Z,9.86
2022-11-21T10:02:42.422Z,9.95
2022-11-21T10:05:54.447Z,10.39
2022-11-21T10:09:07.502Z,10.81
2022-11-21T10:12:40.090Z,10.77
2022-11-21T10:15:54.245Z,10.98
2022-11-21T10:19:02.843Z,11.38
2022-11-21T10:22:20.212Z,11.19
2022-11-21T10:25:30.162Z,11.46
2022-11-21T10:28:46.175Z,11.22
2022-11-21T10:31:49.506Z,11.08
2022-11-21T10:34:59.255Z,11.52
2022-11-21T10:38:03.646Z,11.77
2022-11-21T10:41:42.363Z,12.23
2022-11-21T10:45:06.539Z,12.03
2022-11-21T10:48:09.166Z,12.83
2022-11-21T10:51:27.927Z,12.41
2022-11-21T10:54:32.994Z,13.57
2022-11-21T10:57:48.892Z,15.95
2022-11-21T11:00:58.513Z,16.78
2022-11-21T11:04:41.647Z,18.47
2022-11-21T11:07:39.414Z,16.36
2022-11-21T11:11:12.404Z,14.65
2022-11-21T11:14:16.616Z,14.93
2022-11-21T11:17:31.408Z,14.75
2022-11-21T11:20:39.250Z,13.78
2022-11-21T11:23:41.860Z,13.97
2022-11-21T11:26:51.451Z,13.78
2022-11-21T11:29:53.762Z,13.57
2022-11-21T11:32:56.079Z,12.64
2022-11-21T11:36:26.314Z,11.93
2022-11-21T11:39:51.472Z,11.32
2022-11-21T11:43:25.689Z,10.67
2022-11-21T11:46:47.127Z,10.47
2022-11-21T11:50:11.460Z,10.49
2022-11-21T11:53:26.556Z,10.56
2022-11-21T11:56:33.478Z,10.50
2022-11-21T11:59:51.028Z,10.36
2022-11-21T12:02:56.185Z,10.33
2022-11-21T12:06:09.443Z,10.43
2022-11-21T12:09:31.925Z,10.41
2022-11-21T12:12:56.184Z,10.72
2022-11-21T12:16:13.194Z,11.12
2022-11-21T12:19:17.656Z,11.62
2022-11-21T12:22:20.312Z,12.18
2022-11-21T12:25:29.020Z,12.42
2022-11-21T12:28:58.344Z,13.16
2022-11-21T12:32:31.992Z,15.08
2022-11-21T12:35:52.284Z,16.13
2022-11-21T12:39:27.900Z,19.02
2022-11-21T12:42:51.422Z,19.30
2022-11-21T12:46:07.233Z,21.04
2022-11-21T12:49:54.576Z,21.65
2022-11-21T12:53:26.603Z,22.41
2022-11-21T12:56:49.594Z,19.55
2022-11-21T12:59:51.955Z,18.86
2022-11-21T13:03:21.922Z,19.10
2022-11-21T13:06:30.861Z,19.70
2022-11-21T13:09:42.823Z,20.06
2022-11-21T13:12:56.891Z,20.54
2022-11-21T13:16:06.268Z,21.56
2022-11-21T13:19:24.758Z,19.02
2022-11-21T13:22:36.036Z,18.48
2022-11-21T13:25:39.834Z,17.40
2022-11-21T13:28:45.927Z,16.23
2022-11-21T13:31:48.598Z,14.76
2022-11-21T13:34:50.855Z,13.54
2022-11-21T13:37:54.782Z,12.52
2022-11-21T13:41:35.196Z,12.05
2022-11-21T13:44:41.349Z,11.49
2022-11-21T13:47:58.291Z,11.18
2022-11-21T13:51:09.552Z,10.95
2022-11-21T13:54:14.618Z,10.74
2022-11-21T13:57:28.548Z,10.59
2022-11-21T14:00:36.668Z,10.30
2022-11-21T14:04:03.328Z,10.37
2022-11-21T14:07:27.524Z,10.47
2022-11-21T14:10:33.875Z,10.19
2022-11-21T14:13:38.486Z,10.17
2022-11-21T14:16:47.839Z,10.17
2022-11-21T14:19:54.484Z,9.96
2022-11-21T14:23:03.944Z,9.93
2022-11-21T14:26:14.806Z,9.89
2022-11-21T14:29:18.351Z,9.55
2022-11-21T14:32:27.151Z,9.45
2022-11-21T14:35:29.749Z,9.38
2022-11-21T14:38:45.439Z,9.34
2022-11-21T14:41:59.473Z,9.32
2022-11-21T14:45:22.602Z,9.26
2022-11-21T14:48:29.913Z,9.08
2022-11-21T14:51:32.330Z,9.03
2022-11-21T14:55:15.062Z,8.93
2022-11-21T14:58:16.130Z,8.76
2022-11-21T15:01:24.716Z,8.89
2022-11-21T15:04:33.464Z,8.91
2022-11-21T15:07:41.400Z,8.99
2022-11-21T15:10:44.000Z,8.87
2022-11-21T15:14:14.288Z,8.67
2022-11-21T15:17:18.675Z,8.56
2022-11-21T15:20:21.739Z,8.25
2022-11-21T15:23:32.718Z,8.12
2022-11-21T15:26:35.755Z,8.01
2022-11-21T15:29:38.146Z,7.99
2022-11-21T15:32:58.690Z,7.84
2022-11-21T15:36:12.937Z,7.69
2022-11-21T15:39:24.053Z,7.69
2022-11-21T15:42:32.276Z,7.59
2022-11-21T15:45:34.467Z,7.50
2022-11-21T15:48:36.687Z,7.37
2022-11-21T15:52:06.131Z,7.37
2022-11-21T15:55:14.155Z,7.22
2022-11-21T15:58:17.689Z,7.03
2022-11-21T16:01:29.907Z,7.06
2022-11-21T16:04:32.207Z,6.87
2022-11-21T16:07:34.523Z,6.85
2022-11-21T16:10:37.098Z,6.72
2022-11-21T16:13:39.304Z,6.64
2022-11-21T16:16:43.789Z,6.71
2022-11-21T16:19:46.171Z,6.65
2022-11-21T16:22:49.925Z,6.71
2022-11-21T16:25:55.834Z,6.58
2022-11-21T16:28:58.792Z,6.57
2022-11-21T16:32:01.181Z,6.36
2022-11-21T16:35:04.166Z,6.30
2022-11-21T16:38:12.750Z,6.33
2022-11-21T16:41:17.749Z,6.23
2022-11-21T16:44:20.034Z,6.19
2022-11-21T16:47:22.229Z,6.10
2022-11-21T16:50:24.468Z,6.05
2022-11-21T16:53:30.524Z,6.00
2022-11-21T16:56:32.781Z,6.06
2022-11-21T16:59:35.042Z,6.00
2022-11-21T17:02:37.563Z,6.00
2022-11-21T17:05:39.803Z,6.00
2022-11-21T17:08:42.159Z,5.89
2022-11-21T17:11:44.562Z,5.85
2022-11-21T17:14:47.573Z,5.82
2022-11-21T17:17:49.771Z,5.75
2022-11-21T17:20:52.076Z,5.66
2022-11-21T17:23:54.618Z,5.69
2022-11-21T17:27:00.564Z,5.59
2022-11-21T17:30:02.879Z,5.49
2022-11-21T17:33:05.172Z,5.51
2022-11-21T17:36:11.870Z,5.52
2022-11-21T17:39:24.161Z,5.37
2022-11-21T17:42:30.363Z,5.27
2022-11-21T17:45:35.382Z,5.28
2022-11-21T17:48:38.795Z,5.24
2022-11-21T17:51:41.132Z,5.26
2022-11-21T17:54:43.335Z,5.18
2022-11-21T17:57:46.982Z,5.14
2022-11-21T18:00:55.244Z,5.17
2022-11-21T18:03:58.740Z,5.04
2022-11-21T18:07:00.991Z,5.10
2022-11-21T18:10:27.308Z,5.07
2022-11-21T18:13:25.924Z,4.96
2022-11-21T18:16:30.549Z,4.91
2022-11-21T18:19:32.734Z,4.91
2022-11-21T18:22:34.945Z,4.86
2022-11-21T18:25:38.137Z,4.80
2022-11-21T18:28:40.816Z,4.80
2022-11-21T18:31:44.111Z,4.77
2022-11-21T18:34:47.023Z,4.77
2022-11-21T18:37:49.256Z,4.58
2022-11-21T18:40:51.502Z,4.65
2022-11-21T18:43:59.059Z,4.59
2022-11-21T18:47:01.247Z,4.63
2022-11-21T18:50:03.638Z,4.46
2022-11-21T18:53:05.898Z,4.35
2022-11-21T18:56:13.487Z,4.21
2022-11-21T18:59:15.754Z,4.26
2022-11-21T19:02:17.954Z,4.17
2022-11-21T19:05:20.746Z,4.15
2022-11-21T19:08:23.257Z,4.11
2022-11-21T19:11:27.999Z,4.08
2022-11-21T19:14:30.354Z,4.07
2022-11-21T19:17:33.112Z,3.99
2022-11-21T19:20:40.341Z,4.14
2022-11-21T19:23:44.364Z,4.12
2022-11-21T19:26:46.569Z,4.11
2022-11-21T19:29:53.778Z,4.14
2022-11-21T19:32:58.378Z,4.08
2022-11-21T19:36:11.409Z,4.04
2022-11-21T19:39:14.257Z,4.08
2022-11-21T19:42:16.559Z,3.95
2022-11-21T19:45:18.827Z,3.87
2022-11-21T19:48:21.308Z,3.88
2022-11-21T19:51:28.246Z,3.90
2022-11-21T19:54:30.817Z,3.84
2022-11-21T19:57:36.212Z,3.77
2022-11-21T20:00:38.424Z,3.80
2022-11-21T20:03:43.352Z,3.78
2022-11-21T20:06:46.292Z,3.73
2022-11-21T20:09:48.546Z,3.74
2022-11-21T20:12:50.777Z,3.71
2022-11-21T20:15:52.972Z,3.81
2022-11-21T20:18:57.745Z,3.69
2022-11-21T20:22:00.190Z,3.60
2022-11-21T20:25:02.519Z,3.60
2022-11-21T20:28:10.172Z,3.52
2022-11-21T20:31:16.480Z,3.56
2022-11-21T20:34:18.665Z,3.63
2022-11-21T20:37:21.124Z,3.66
2022-11-21T20:40:23.352Z,3.67
2022-11-21T20:43:38.152Z,3.67
2022-11-21T20:46:48.359Z,3.70
2022-11-21T20:49:50.665Z,3.76
2022-11-21T20:56:15.427Z,3.76
2022-11-21T20:59:17.691Z,3.63
2022-11-21T21:02:20.081Z,3.52
2022-11-21T21:05:22.275Z,3.54
2022-11-21T21:08:24.962Z,3.52
2022-11-21T21:14:49.853Z,3.39
2022-11-21T21:17:52.111Z,3.32
2022-11-21T21:21:16.711Z,3.33
2022-11-21T21:24:19.626Z,3.25
2022-11-21T21:27:21.852Z,3.25
2022-11-21T21:30:24.147Z,3.22
2022-11-21T21:33:26.378Z,3.18
2022-11-21T21:36:28.780Z,3.19
2022-11-21T21:39:31.070Z,3.12
2022-11-21T21:42:33.261Z,3.15
2022-11-21T21:45:35.529Z,3.11
2022-11-21T21:48:38.713Z,3.08
2022-11-21T21:51:41.374Z,3.13
2022-11-21T21:54:45.135Z,3.15
2022-11-21T21:57:52.365Z,3.15
2022-11-21T22:01:02.490Z,3.23
2022-11-21T22:04:06.089Z,3.22
2022-11-21T22:07:08.861Z,3.27
2022-11-21T22:10:11.255Z,3.16
2022-11-21T22:13:13.530Z,3.09
2022-11-21T22:16:16.766Z,3.08
2022-11-21T22:19:20.999Z,2.96
2022-11-21T22:22:23.269Z,2.88
2022-11-21T22:25:29.051Z,2.84
2022-11-21T22:28:32.011Z,2.71
2022-11-21T22:31:34.431Z,2.60
2022-11-21T22:34:36.764Z,2.55
2022-11-21T22:37:38.969Z,2.51
2022-11-21T22:40:41.283Z,2.45
2022-11-21T22:43:44.608Z,2.38
2022-11-21T22:46:46.844Z,2.41
2022-11-21T22:49:49.076Z,2.47
2022-11-21T22:52:51.364Z,2.53
2022-11-21T22:56:04.902Z,2.54
2022-11-21T22:59:07.551Z,2.48
2022-11-21T23:02:09.839Z,2.43
2022-11-21T23:05:12.123Z,2.41
2022-11-21T23:08:14.312Z,2.44
2022-11-21T23:11:24.512Z,2.47
2022-11-21T23:14:27.002Z,2.41
2022-11-21T23:17:29.310Z,2.40
2022-11-21T23:20:31.563Z,2.38
2022-11-21T23:23:33.983Z,2.33
2022-11-21T23:26:36.454Z,2.27
2022-11-21T23:29:38.679Z,2.20
2022-11-21T23:32:41.116Z,2.12
2022-11-21T23:35:46.607Z,2.13
2022-11-21T23:38:55.758Z,2.16
2022-11-21T23:41:58.056Z,2.27
2022-11-21T23:45:06.702Z,2.29
2022-11-21T23:48:08.995Z,2.36
2022-11-21T23:51:11.282Z,2.41
2022-11-21T23:54:13.570Z,2.36
2022-11-21T23:57:15.767Z,2.41
